Time;durP1;ratioP1;P1;durP2;ratioP2;P2;SDS_P1;SDS_P2;PMS_P1;PMS_P2;Temp;Humidity;BMP_temperature;BMP_pressure;BME280_temperature;BME280_humidity;BME280_pressure;Samples;Min_cycle;Max_cycle;Signal;HPM_P1;HPM_P2
2022/12/13 00:00:18;;;;;;;102.15;37.50;;;;;;;-6.71;100.00;101150.84;2064135;28;39693;-70
2022/12/13 00:01:20;;;;;;;101.53;36.35;;;;;;;-6.72;100.00;101141.25;2055972;28;34743;-70
2022/12/13 00:02:22;;;;;;;96.32;34.70;;;;;;;-6.72;100.00;101143.84;2056968;28;37843;-71
2022/12/13 00:03:26;;;;;;;88.82;32.63;;;;;;;-6.75;100.00;101135.88;2063775;28;39345;-69
2022/12/13 00:04:28;;;;;;;99.55;37.92;;;;;;;-6.71;100.00;101143.03;2064243;28;39413;-70
2022/12/13 00:05:31;;;;;;;96.75;34.67;;;;;;;-6.76;100.00;101134.09;2055024;28;35991;-71
2022/12/13 00:06:34;;;;;;;82.20;33.85;;;;;;;-6.80;100.00;101138.25;2055456;28;37607;-70
2022/12/13 00:07:36;;;;;;;91.15;34.17;;;;;;;-6.84;100.00;101133.69;2063720;28;39759;-71
2022/12/13 00:08:38;;;;;;;85.00;35.97;;;;;;;-6.87;100.00;101140.47;2063995;28;20031;-70
2022/12/13 00:09:41;;;;;;;77.68;31.98;;;;;;;-6.92;100.00;101135.94;2063280;28;43093;-70
2022/12/13 00:10:43;;;;;;;82.40;32.25;;;;;;;-6.93;100.00;101135.84;2064106;28;37939;-69
2022/12/13 00:11:45;;;;;;;92.25;35.30;;;;;;;-6.98;100.00;101135.63;2063692;28;26616;-70
2022/12/13 00:12:47;;;;;;;76.22;29.85;;;;;;;-7.04;100.00;101142.22;2063492;28;36644;-70
2022/12/13 00:13:49;;;;;;;80.10;31.88;;;;;;;-7.05;100.00;101133.53;2055104;28;36251;-70
2022/12/13 00:14:51;;;;;;;84.47;32.97;;;;;;;-7.07;100.00;101139.44;2047996;28;34926;-70
2022/12/13 00:16:02;;;;;;;81.05;31.38;;;;;;;-7.06;100.00;101141.25;2056019;28;20031;-71
2022/12/13 00:17:06;;;;;;;85.63;32.55;;;;;;;-7.05;100.00;101138.72;2064411;28;20047;-70
2022/12/13 00:18:08;;;;;;;89.55;34.53;;;;;;;-7.04;100.00;101135.28;2063728;28;40418;-71
2022/12/13 00:19:09;;;;;;;78.72;32.28;;;;;;;-7.08;100.00;101128.16;2064067;28;38030;-68
2022/12/13 00:20:11;;;;;;;88.88;34.20;;;;;;;-7.07;100.00;101134.25;2063631;28;40860;-70
2022/12/13 00:21:16;;;;;;;89.57;33.60;;;;;;;-7.09;100.00;101126.34;2055322;28;34633;-69
2022/12/13 00:22:18;;;;;;;84.70;33.70;;;;;;;-7.06;100.00;101128.25;2056210;28;36189;-71
2022/12/13 00:23:20;;;;;;;82.72;32.30;;;;;;;-7.08;100.00;101125.56;2064068;28;20042;-70
2022/12/13 00:24:24;;;;;;;84.63;30.98;;;;;;;-7.09;100.00;101128.97;2063790;28;38429;-70
2022/12/13 00:25:26;;;;;;;77.13;31.55;;;;;;;-7.10;100.00;101129.78;2064382;28;20048;-73
2022/12/13 00:26:31;;;;;;;80.47;31.42;;;;;;;-7.11;100.00;101130.59;2064085;28;27423;-70
2022/12/13 00:27:35;;;;;;;79.38;31.55;;;;;;;-7.11;100.00;101133.19;2055710;28;20043;-69
2022/12/13 00:28:38;;;;;;;84.95;32.78;;;;;;;-7.08;100.00;101128.16;2048741;28;20051;-69
2022/12/13 00:29:40;;;;;;;83.35;33.17;;;;;;;-6.98;100.00;101129.50;2055226;28;40394;-70
2022/12/13 00:30:42;;;;;;;86.97;34.53;;;;;;;-6.99;100.00;101128.63;2064181;28;26050;-70
2022/12/13 00:31:43;;;;;;;98.43;35.63;;;;;;;-6.95;100.00;101127.94;2055615;28;36135;-70
2022/12/13 00:33:03;;;;;;;79.47;31.02;;;;;;;-6.99;100.00;101135.53;2059186;28;20039;-69
2022/12/13 00:34:04;;;;;;;88.05;33.25;;;;;;;-7.02;100.00;101138.88;2063754;28;35865;-70
2022/12/13 00:35:07;;;;;;;88.15;32.08;;;;;;;-7.05;100.00;101143.03;2064348;28;20281;-71
2022/12/13 00:36:09;;;;;;;83.60;33.20;;;;;;;-7.06;100.00;101141.25;2063625;28;37492;-69
2022/12/13 00:37:11;;;;;;;77.65;31.27;;;;;;;-7.11;100.00;101134.06;2063758;28;37956;-70
2022/12/13 00:38:13;;;;;;;76.50;30.90;;;;;;;-7.13;100.00;101129.63;2055489;28;38886;-71
2022/12/13 00:39:18;;;;;;;80.15;32.63;;;;;;;-7.17;100.00;101130.28;2055748;28;20039;-71
2022/12/13 00:40:20;;;;;;;75.78;32.13;;;;;;;-7.12;100.00;101131.44;2063777;28;36193;-69
2022/12/13 00:41:23;;;;;;;87.68;33.70;;;;;;;-7.12;100.00;101134.03;2063741;28;39710;-70
2022/12/13 00:42:25;;;;;;;90.25;33.33;;;;;;;-7.14;100.00;101131.34;2063468;28;39209;-69
2022/12/13 00:43:27;;;;;;;83.90;32.63;;;;;;;-7.16;100.00;101132.06;2063689;28;31349;-68
2022/12/13 00:44:30;;;;;;;83.32;32.47;;;;;;;-7.17;100.00;101128.56;2046914;28;38780;-68
2022/12/13 00:45:32;;;;;;;73.22;28.67;;;;;;;-7.17;100.00;101138.09;2047432;28;35969;-69
2022/12/13 00:46:34;;;;;;;79.20;31.65;;;;;;;-7.20;100.00;101128.41;2063368;28;38730;-69
2022/12/13 00:47:36;;;;;;;79.75;31.02;;;;;;;-7.20;100.00;101135.31;2063355;28;41758;-70
2022/12/13 00:48:37;;;;;;;87.00;32.05;;;;;;;-7.21;100.00;101131.84;2064361;28;20305;-69
2022/12/13 00:49:40;;;;;;;78.65;30.58;;;;;;;-7.20;100.00;101124.91;2063985;28;20149;-69
2022/12/13 00:50:42;;;;;;;86.05;33.42;;;;;;;-7.19;100.00;101125.00;2063738;28;36929;-70
2022/12/13 00:51:44;;;;;;;92.88;33.38;;;;;;;-7.22;100.00;101123.97;2063428;28;36362;-71
2022/12/13 00:52:45;;;;;;;80.22;32.65;;;;;;;-7.21;100.00;101118.84;2054867;28;39046;-69
2022/12/13 00:53:47;;;;;;;83.95;34.55;;;;;;;-7.19;100.00;101124.13;2055181;28;37543;-70
2022/12/13 00:54:49;;;;;;;78.53;30.13;;;;;;;-7.20;100.00;101111.91;2063604;28;35732;-70
2022/12/13 00:55:50;;;;;;;92.07;33.60;;;;;;;-7.18;100.00;101115.47;2063592;28;37447;-70
2022/12/13 00:56:52;;;;;;;107.75;36.53;;;;;;;-7.11;100.00;101112.38;2063594;28;40552;-70
2022/12/13 00:57:54;;;;;;;89.57;33.80;;;;;;;-7.11;100.00;101109.78;2063712;28;39265;-69
2022/12/13 00:58:56;;;;;;;95.95;35.47;;;;;;;-7.04;100.00;101114.47;2063717;28;38531;-69
2022/12/13 00:59:58;;;;;;;91.32;33.72;;;;;;;-7.03;100.00;101108.47;2063557;28;38541;-69
2022/12/13 01:01:10;;;;;;;88.80;33.03;;;;;;;-6.97;100.00;101100.97;2063316;28;38344;-70
2022/12/13 01:02:11;;;;;;;100.47;34.70;;;;;;;-6.96;100.00;101107.97;2064452;28;36558;-69
2022/12/13 01:03:19;;;;;;;90.95;32.28;;;;;;;-6.96;100.00;101107.97;2064871;28;42057;-71
2022/12/13 01:04:21;;;;;;;92.13;33.72;;;;;;;-6.88;100.00;101100.53;2063518;28;35317;-71
2022/12/13 01:05:23;;;;;;;100.97;35.00;;;;;;;-6.86;100.00;101105.81;2063631;28;39953;-70
2022/12/13 01:06:48;;;;;;;127.32;33.17;;;;;;;-6.86;100.00;101098.00;2064554;28;20039;-71
2022/12/13 01:07:50;;;;;;;109.45;35.33;;;;;;;-6.86;100.00;101104.09;2063364;28;35600;-70
2022/12/13 01:08:52;;;;;;;113.32;35.40;;;;;;;-6.86;100.00;101100.63;2063560;28;41027;-71
2022/12/13 01:09:56;;;;;;;128.52;35.33;;;;;;;-6.81;100.00;101101.75;2055156;28;25265;-70
2022/12/13 01:10:58;;;;;;;110.03;33.85;;;;;;;-6.76;100.00;101106.34;2055295;28;39457;-70
2022/12/13 01:12:04;;;;;;;126.18;34.80;;;;;;;-6.70;100.00;101104.88;2063134;28;41871;-70
2022/12/13 01:13:05;;;;;;;106.65;32.75;;;;;;;-6.67;100.00;101111.13;2063439;28;35605;-70
2022/12/13 01:14:07;;;;;;;201.80;40.97;;;;;;;-6.62;100.00;101103.53;2063259;28;38325;-71
2022/12/13 01:15:10;;;;;;;118.05;36.60;;;;;;;-6.58;100.00;101111.56;2064506;28;20035;-71
2022/12/13 01:16:13;;;;;;;251.00;41.40;;;;;;;-6.53;100.00;101109.22;2063139;28;38438;-71
2022/12/13 01:17:14;;;;;;;187.52;36.47;;;;;;;-6.53;100.00;101102.28;2063237;28;37530;-71
2022/12/13 01:18:17;;;;;;;169.40;39.70;;;;;;;-6.45;100.00;101118.25;2062926;28;39827;-71
2022/12/13 01:19:18;;;;;;;212.32;40.72;;;;;;;-6.41;100.00;101111.50;2063856;28;24837;-71
2022/12/13 01:20:20;;;;;;;215.73;40.97;;;;;;;-6.35;100.00;101119.63;2062989;28;39944;-71
2022/12/13 01:21:22;;;;;;;241.68;39.58;;;;;;;-6.37;100.00;101126.44;2063116;28;35112;-70
2022/12/13 01:22:24;;;;;;;246.18;40.13;;;;;;;-6.35;100.00;101120.50;2062752;28;39715;-70
2022/12/13 01:23:29;;;;;;;179.32;37.15;;;;;;;-6.32;100.00;101114.53;2064546;28;20912;-70
2022/12/13 01:24:31;;;;;;;256.52;41.60;;;;;;;-6.29;100.00;101116.41;2063038;28;42843;-71
2022/12/13 01:25:36;;;;;;;263.20;40.08;;;;;;;-6.21;100.00;101115.97;2054819;28;36729;-71
2022/12/13 01:26:38;;;;;;;300.67;42.63;;;;;;;-6.19;100.00;101119.53;2055286;28;38673;-69
2022/12/13 01:27:39;;;;;;;231.75;38.28;;;;;;;-6.19;100.00;101106.50;2062953;28;43138;-69
2022/12/13 01:28:41;;;;;;;172.75;39.92;;;;;;;-6.17;100.00;101120.50;2063502;28;37889;-70
2022/12/13 01:29:46;;;;;;;199.15;40.35;;;;;;;-6.10;100.00;101123.38;2063695;28;37216;-70
2022/12/13 01:31:04;;;;;;;143.38;36.72;;;;;;;-6.12;100.00;101125.91;2054327;28;40398;-68
2022/12/13 01:32:06;;;;;;;229.93;39.75;;;;;;;-6.10;100.00;101120.78;2057800;28;23826;-69
2022/12/13 01:33:07;;;;;;;144.73;37.30;;;;;;;-6.07;100.00;101126.13;2055894;28;44195;-69
2022/12/13 01:34:18;;;;;;;233.20;38.45;;;;;;;-6.06;100.00;101123.59;2055707;28;39728;-69
2022/12/13 01:35:22;;;;;;;198.93;39.88;;;;;;;-6.05;100.00;101130.59;2054581;28;39355;-70
2022/12/13 01:36:24;;;;;;;149.45;39.08;;;;;;;-6.03;100.00;101128.97;2055761;28;42505;-70
2022/12/13 01:37:28;;;;;;;253.52;40.55;;;;;;;-6.02;100.00;101124.66;2063389;28;40042;-70
2022/12/13 01:38:30;;;;;;;207.52;37.90;;;;;;;-6.02;100.00;101129.84;2063155;28;40961;-70
2022/12/13 01:39:32;;;;;;;210.43;38.10;;;;;;;-6.02;100.00;101128.13;2063625;28;33651;-70
2022/12/13 01:40:56;;;;;;;204.10;40.03;;;;;;;-6.00;100.00;101123.88;2063491;28;37520;-71
2022/12/13 01:42:02;;;;;;;137.00;36.25;;;;;;;-6.01;100.00;101129.94;2055339;28;20051;-70
2022/12/13 01:43:07;;;;;;;183.43;38.25;;;;;;;-5.99;100.00;101130.00;2056045;28;38598;-70
2022/12/13 01:45:20;;;;;;;189.73;37.65;;;;;;;-5.97;100.00;101121.44;2063505;28;38910;-70
2022/12/13 01:46:24;;;;;;;123.93;29.88;;;;;;;-5.98;100.00;101117.03;2046630;28;30753;-70
2022/12/13 01:47:40;;;;;;;113.85;29.00;;;;;;;-5.99;100.00;101120.47;2047099;28;20908;-69
2022/12/13 01:49:07;;;;;;;142.48;33.50;;;;;;;-5.97;100.00;101116.22;2047783;28;41611;-69
2022/12/13 01:50:27;;;;;;;130.20;35.55;;;;;;;-5.96;100.00;101119.69;2052707;28;40095;-71
2022/12/13 01:51:45;;;;;;;171.07;35.85;;;;;;;-5.96;100.00;101111.88;2051700;28;37937;-68
2022/12/13 01:52:48;;;;;;;166.25;36.25;;;;;;;-5.93;100.00;101111.13;2057325;28;38382;-69
2022/12/13 01:53:58;;;;;;;159.02;32.83;;;;;;;-5.92;100.00;101115.50;2054632;28;40561;-70
2022/12/13 01:55:03;;;;;;;114.65;33.00;;;;;;;-5.93;100.00;101111.13;2056356;28;37875;-70
2022/12/13 01:56:27;;;;;;;133.85;35.60;;;;;;;-5.89;100.00;101111.31;2054685;28;37793;-70
2022/12/13 01:57:32;;;;;;;177.13;36.45;;;;;;;-5.90;100.00;101108.63;2050288;28;35938;-69
2022/12/13 01:58:35;;;;;;;268.70;40.33;;;;;;;-5.89;100.00;101105.22;2054494;28;38555;-69
2022/12/13 01:59:40;;;;;;;164.07;35.53;;;;;;;-5.89;100.00;101106.09;2055050;28;38732;-69
2022/12/13 02:00:44;;;;;;;201.52;35.78;;;;;;;-5.89;100.00;101105.22;2054623;28;37184;-69
2022/12/13 02:01:49;;;;;;;163.52;33.08;;;;;;;-5.89;100.00;101115.63;2054861;28;28506;-70
2022/12/13 02:02:53;;;;;;;169.15;33.30;;;;;;;-5.90;100.00;101101.72;2054222;28;38744;-69
2022/12/13 02:03:54;;;;;;;168.65;37.65;;;;;;;-5.88;100.00;101107.91;2049623;28;35676;-70
2022/12/13 02:05:04;;;;;;;154.18;35.67;;;;;;;-5.87;100.00;101106.16;2046635;28;38469;-70
2022/12/13 02:06:18;;;;;;;163.93;37.47;;;;;;;-5.87;100.00;101109.66;2056011;28;20040;-69
2022/12/13 02:07:28;;;;;;;196.55;36.92;;;;;;;-5.82;100.00;101113.38;2054932;28;35998;-69
2022/12/13 02:08:30;;;;;;;214.43;38.65;;;;;;;-5.83;100.00;101101.19;2048854;28;37094;-69
2022/12/13 02:09:36;;;;;;;122.47;33.10;;;;;;;-5.83;100.00;101111.63;2054714;28;31555;-71
2022/12/13 02:10:40;;;;;;;129.75;35.33;;;;;;;-5.83;100.00;101102.88;2055319;28;40738;-69
2022/12/13 02:11:43;;;;;;;175.93;37.92;;;;;;;-5.77;100.00;101095.34;2054903;28;20629;-70
2022/12/13 02:12:46;;;;;;;181.75;37.45;;;;;;;-5.73;100.00;101101.59;2048099;28;20044;-69
2022/12/13 02:13:47;;;;;;;166.60;34.83;;;;;;;-5.75;100.00;101104.13;2055261;28;35562;-70
2022/12/13 02:14:51;;;;;;;128.70;35.45;;;;;;;-5.77;100.00;101106.66;2054304;28;39013;-70
2022/12/13 02:16:19;;;;;;;122.25;31.27;;;;;;;-5.82;100.00;101100.34;2054894;28;38976;-69
2022/12/13 02:17:34;;;;;;;251.88;36.53;;;;;;;-5.83;100.00;101101.19;2063658;28;20043;-70
2022/12/13 02:18:57;;;;;;;137.40;32.60;;;;;;;-5.83;100.00;101106.41;2054354;28;39373;-69
2022/12/13 02:20:23;;;;;;;248.65;33.72;;;;;;;-5.84;100.00;101104.59;2058747;28;20883;-70
2022/12/13 02:21:39;;;;;;;131.98;27.58;;;;;;;-5.84;100.00;101098.50;2063736;28;20035;-71
2022/12/13 02:23:06;;;;;;;114.45;31.40;;;;;;;-5.83;100.00;101102.88;2063423;28;20054;-69
2022/12/13 02:24:40;;;;;;;112.95;32.20;;;;;;;-5.83;100.00;101105.47;2064016;28;20039;-70
2022/12/13 02:26:20;;;;;;;100.13;32.40;;;;;;;-5.79;100.00;101092.66;2063160;28;41097;-70
2022/12/13 02:27:50;;;;;;;112.32;34.20;;;;;;;-5.78;100.00;101093.56;2057503;28;35646;-70
2022/12/13 02:29:25;;;;;;;111.15;33.95;;;;;;;-5.72;100.00;101090.31;2054605;28;35953;-69
2022/12/13 02:30:43;;;;;;;104.32;33.00;;;;;;;-5.73;100.00;101086.84;2062938;28;20039;-70
2022/12/13 02:32:06;;;;;;;115.70;35.58;;;;;;;-5.69;100.00;101088.75;2062789;28;42412;-69
2022/12/13 02:33:49;;;;;;;100.95;34.60;;;;;;;-5.66;100.00;101090.63;2064269;28;36472;-70
2022/12/13 02:35:02;;;;;;;113.75;33.78;;;;;;;-5.64;100.00;101086.34;2026900;28;41227;-69
2022/12/13 02:36:43;;;;;;;120.75;36.85;;;;;;;-5.63;100.00;101088.16;2062293;28;39560;-71
2022/12/13 02:38:20;;;;;;;110.38;31.90;;;;;;;-5.62;100.00;101088.19;2052481;28;41554;-70
2022/12/13 02:39:40;;;;;;;94.13;31.52;;;;;;;-5.63;100.00;101088.16;2065216;28;20051;-69
2022/12/13 02:41:10;;;;;;;94.57;30.52;;;;;;;-5.62;100.00;101085.59;2056041;28;42098;-69
2022/12/13 02:42:35;;;;;;;118.30;35.95;;;;;;;-5.61;100.00;101082.16;2060771;28;33501;-70
2022/12/13 02:44:00;;;;;;;104.43;36.28;;;;;;;-5.60;100.00;101094.41;2055683;28;36376;-70
2022/12/13 02:45:11;;;;;;;98.53;32.90;;;;;;;-5.57;100.00;101093.63;2053629;28;21246;-70
2022/12/13 02:46:24;;;;;;;107.50;35.38;;;;;;;-5.45;100.00;101088.09;2062088;28;20046;-69
2022/12/13 02:47:29;;;;;;;99.30;34.95;;;;;;;-5.47;100.00;101097.53;2055446;28;42578;-70
2022/12/13 02:48:36;;;;;;;107.60;37.97;;;;;;;-5.49;100.00;101089.66;2057639;28;20038;-69
2022/12/13 02:49:45;;;;;;;96.82;32.72;;;;;;;-5.46;100.00;101092.38;2055910;28;37829;-70
2022/12/13 02:50:52;;;;;;;70.53;25.30;;;;;;;-5.48;100.00;101083.59;2057884;28;39750;-70
2022/12/13 02:51:56;;;;;;;108.70;34.65;;;;;;;-5.47;100.00;101079.28;2055522;28;38591;-70
2022/12/13 02:52:59;;;;;;;98.50;33.58;;;;;;;-5.44;100.00;101080.28;2056298;28;41132;-70
2022/12/13 02:54:00;;;;;;;101.38;34.65;;;;;;;-5.44;100.00;101079.41;2056140;28;20082;-70
2022/12/13 02:55:08;;;;;;;98.50;35.80;;;;;;;-5.44;100.00;101075.09;2057371;28;20051;-70
2022/12/13 02:56:09;;;;;;;118.20;38.20;;;;;;;-5.43;100.00;101074.28;2063524;28;38194;-69
2022/12/13 02:57:37;;;;;;;100.80;35.33;;;;;;;-5.40;100.00;101077.03;2055610;28;36748;-70
2022/12/13 02:58:47;;;;;;;87.95;30.10;;;;;;;-5.39;100.00;101070.97;2058878;28;42872;-70
2022/12/13 02:59:49;;;;;;;110.70;35.97;;;;;;;-5.35;100.00;101066.75;2064466;28;20038;-71
2022/12/13 03:01:10;;;;;;;129.20;39.20;;;;;;;-5.31;100.00;101065.19;2063483;28;40247;-70
2022/12/13 03:02:47;;;;;;;108.35;34.60;;;;;;;-5.29;100.00;101068.75;2064727;28;24527;-70
2022/12/13 03:04:31;;;;;;;96.00;30.67;;;;;;;-5.28;100.00;101057.50;2055668;28;41681;-70
2022/12/13 03:06:30;;;;;;;94.90;33.85;;;;;;;-5.27;100.00;101067.13;2026388;28;20061;-71
2022/12/13 03:08:00;;;;;;;78.85;25.55;;;;;;;-5.22;100.00;101070.81;2034644;28;20048;-71
2022/12/13 03:09:24;;;;;;;124.03;35.70;;;;;;;-5.20;100.00;101070.06;2056628;28;20162;-70
2022/12/13 03:10:36;;;;;;;102.03;32.58;;;;;;;-5.19;100.00;101071.84;2053539;28;35189;-72
2022/12/13 03:13:56;;;;;;;148.80;35.67;;;;;;;-5.13;100.00;101062.47;2064474;28;38924;-69
2022/12/13 03:15:21;;;;;;;115.90;32.65;;;;;;;-5.12;100.00;101062.53;2055726;28;38030;-69
2022/12/13 03:16:43;;;;;;;116.55;34.40;;;;;;;-5.08;100.00;101063.56;2061225;28;41542;-70
2022/12/13 03:18:16;;;;;;;166.13;36.63;;;;;;;-5.05;100.00;101061.09;2056332;28;20043;-70
2022/12/13 03:19:17;;;;;;;172.82;37.35;;;;;;;-5.03;100.00;101064.66;2046576;28;20047;-70
2022/12/13 03:20:25;;;;;;;171.32;40.25;;;;;;;-5.01;100.00;101060.38;2050282;28;39479;-72
2022/12/13 03:21:28;;;;;;;247.07;41.55;;;;;;;-4.99;100.00;101063.94;2055758;28;31585;-70
2022/12/13 03:22:35;;;;;;;171.40;39.50;;;;;;;-4.97;100.00;101056.19;2055606;28;38216;-70
2022/12/13 03:23:39;;;;;;;163.40;42.95;;;;;;;-4.94;100.00;101062.41;2056235;28;39495;-70
2022/12/13 03:24:41;;;;;;;182.38;39.13;;;;;;;-4.94;100.00;101071.97;2055907;28;41715;-70
2022/12/13 03:25:46;;;;;;;164.20;34.88;;;;;;;-4.92;100.00;101062.50;2056096;28;38306;-69
2022/12/13 03:26:49;;;;;;;157.60;40.45;;;;;;;-4.90;100.00;101066.03;2055625;28;38085;-71
2022/12/13 03:27:52;;;;;;;124.40;34.20;;;;;;;-4.88;100.00;101074.84;2055229;28;39334;-69
2022/12/13 03:28:54;;;;;;;220.35;37.65;;;;;;;-4.90;100.00;101066.03;2055526;28;39069;-70
2022/12/13 03:29:59;;;;;;;249.32;39.33;;;;;;;-4.89;100.00;101067.84;2055553;28;34736;-71
2022/12/13 03:31:00;;;;;;;194.73;37.80;;;;;;;-4.89;100.00;101066.13;2055962;28;20122;-71
2022/12/13 03:32:03;;;;;;;263.30;41.97;;;;;;;-4.88;100.00;101064.38;2054641;28;42355;-71
2022/12/13 03:33:04;;;;;;;190.95;38.25;;;;;;;-4.87;100.00;101071.41;2047128;28;38241;-71
2022/12/13 03:34:06;;;;;;;264.73;42.97;;;;;;;-4.86;100.00;101067.97;2047079;28;38426;-71
2022/12/13 03:35:08;;;;;;;173.30;40.10;;;;;;;-4.85;100.00;101064.53;2057542;28;37892;-70
2022/12/13 03:36:23;;;;;;;215.95;39.22;;;;;;;-4.84;100.00;101066.31;2056529;28;35203;-71
2022/12/13 03:37:25;;;;;;;150.48;38.67;;;;;;;-4.83;100.00;101070.69;2055760;28;40575;-68
2022/12/13 03:38:28;;;;;;;216.20;38.72;;;;;;;-4.83;100.00;101070.69;2055691;28;35856;-71
2022/12/13 03:39:30;;;;;;;257.65;41.30;;;;;;;-4.82;100.00;101072.50;2055088;28;39139;-72
2022/12/13 03:40:32;;;;;;;277.33;40.50;;;;;;;-4.81;100.00;101071.66;2055742;28;40813;-71
2022/12/13 03:41:39;;;;;;;158.25;39.90;;;;;;;-4.75;100.00;101069.31;2056219;28;20028;-71
2022/12/13 03:42:40;;;;;;;202.18;40.45;;;;;;;-4.77;100.00;101065.75;2055439;28;38640;-70
2022/12/13 03:43:42;;;;;;;232.98;40.10;;;;;;;-4.75;100.00;101066.69;2054358;28;36276;-71
2022/12/13 03:44:44;;;;;;;154.20;39.97;;;;;;;-4.77;100.00;101064.81;2055591;28;34354;-71
2022/12/13 03:45:45;;;;;;;239.85;41.20;;;;;;;-4.77;100.00;101062.22;2055216;28;37099;-71
2022/12/13 03:46:47;;;;;;;193.88;41.95;;;;;;;-4.75;100.00;101055.38;2055711;28;36696;-70
2022/12/13 03:47:49;;;;;;;176.65;42.13;;;;;;;-4.74;100.00;101059.75;2055960;28;39589;-70
2022/12/13 03:48:50;;;;;;;190.05;40.63;;;;;;;-4.75;100.00;101060.59;2061592;28;36450;-70
2022/12/13 03:49:52;;;;;;;141.80;36.65;;;;;;;-4.77;100.00;101055.28;2063952;28;38745;-70
2022/12/13 03:50:55;;;;;;;132.55;39.33;;;;;;;-4.77;100.00;101052.69;2064112;28;37756;-70
2022/12/13 03:51:57;;;;;;;156.77;36.65;;;;;;;-4.75;100.00;101052.75;2064694;28;20157;-70
2022/12/13 03:53:00;;;;;;;140.20;38.67;;;;;;;-4.77;100.00;101057.00;2063951;28;41835;-70
2022/12/13 03:54:02;;;;;;;242.15;40.88;;;;;;;-4.78;100.00;101043.06;2055858;28;38241;-68
2022/12/13 03:55:04;;;;;;;137.68;41.50;;;;;;;-4.76;100.00;101048.34;2055716;28;40258;-70
2022/12/13 03:56:06;;;;;;;133.85;39.05;;;;;;;-4.75;100.00;101044.91;2055810;28;20078;-71
2022/12/13 03:57:08;;;;;;;153.90;41.45;;;;;;;-4.75;100.00;101051.03;2056212;28;36145;-70
2022/12/13 03:58:10;;;;;;;145.90;40.40;;;;;;;-4.74;100.00;101055.41;2064139;28;39511;-71
2022/12/13 03:59:11;;;;;;;157.93;35.92;;;;;;;-4.75;100.00;101051.03;2063894;28;36130;-71
2022/12/13 04:00:14;;;;;;;167.43;39.08;;;;;;;-4.75;100.00;101048.41;2064752;28;21050;-71
2022/12/13 04:01:16;;;;;;;135.15;40.35;;;;;;;-4.74;100.00;101049.28;2064572;28;20047;-70
2022/12/13 04:02:18;;;;;;;157.77;39.92;;;;;;;-4.72;100.00;101047.63;2063706;28;40671;-71
2022/12/13 04:03:32;;;;;;;161.38;33.45;;;;;;;-4.73;100.00;101044.13;2063907;28;36259;-71
2022/12/13 04:04:33;;;;;;;168.95;38.55;;;;;;;-4.74;100.00;101046.69;2063914;28;38374;-70
2022/12/13 04:05:35;;;;;;;171.50;41.17;;;;;;;-4.74;100.00;101044.94;2063979;28;40578;-70
2022/12/13 04:06:37;;;;;;;156.13;39.10;;;;;;;-4.72;100.00;101050.25;2065634;28;20031;-71
2022/12/13 04:07:39;;;;;;;160.43;40.00;;;;;;;-4.72;100.00;101050.25;2063890;28;40038;-71
2022/12/13 04:08:43;;;;;;;123.38;36.03;;;;;;;-4.73;100.00;101051.09;2063650;28;37522;-70
2022/12/13 04:09:45;;;;;;;195.27;38.55;;;;;;;-4.77;100.00;101049.16;2064074;28;33437;-70
2022/12/13 04:10:46;;;;;;;230.35;37.83;;;;;;;-4.77;100.00;101050.06;2062859;28;40066;-71
2022/12/13 04:14:30;;;;;;;108.28;32.42;;;;;;;-4.81;100.00;101037.69;2052140;28;43147;-70
2022/12/13 04:15:32;;;;;;;131.95;33.60;;;;;;;-4.80;100.00;101039.50;2057777;28;37872;-70
2022/12/13 04:16:33;;;;;;;176.07;37.20;;;;;;;-4.82;100.00;101042.03;2063638;28;42035;-71
2022/12/13 04:17:35;;;;;;;171.68;36.63;;;;;;;-4.82;100.00;101041.16;2063372;28;40742;-70
2022/12/13 04:18:37;;;;;;;185.10;37.95;;;;;;;-4.83;100.00;101040.28;2054873;28;34889;-71
2022/12/13 04:19:38;;;;;;;111.20;33.60;;;;;;;-4.83;100.00;101041.97;2055412;28;39083;-70
2022/12/13 04:20:40;;;;;;;96.03;32.75;;;;;;;-4.85;100.00;101034.06;2064322;28;31978;-71
2022/12/13 04:21:42;;;;;;;136.05;32.63;;;;;;;-4.82;100.00;101035.94;2063462;28;35136;-71
2022/12/13 04:22:44;;;;;;;128.20;35.35;;;;;;;-4.82;100.00;101038.53;2064079;28;34720;-70
2022/12/13 04:23:45;;;;;;;168.85;37.25;;;;;;;-4.83;100.00;101036.75;2064143;28;35781;-70
2022/12/13 04:24:47;;;;;;;157.23;36.88;;;;;;;-4.82;100.00;101028.97;2064056;28;34612;-70
2022/12/13 04:25:49;;;;;;;149.73;35.47;;;;;;;-4.85;100.00;101026.22;2063552;28;41128;-68
2022/12/13 04:26:50;;;;;;;253.95;36.67;;;;;;;-4.87;100.00;101025.28;2063845;28;36699;-70
2022/12/13 04:27:52;;;;;;;178.63;35.90;;;;;;;-4.89;100.00;101029.56;2063159;28;38758;-71
2022/12/13 04:28:54;;;;;;;157.68;33.90;;;;;;;-4.88;100.00;101033.06;2063830;28;39834;-71
2022/12/13 04:29:56;;;;;;;158.00;31.98;;;;;;;-4.90;100.00;101034.72;2063322;28;36580;-72
2022/12/13 04:30:58;;;;;;;172.18;36.17;;;;;;;-4.92;100.00;101046.81;2063967;28;32189;-69
2022/12/13 04:32:05;;;;;;;296.58;36.85;;;;;;;-4.95;100.00;101049.28;2064053;28;20062;-70
2022/12/13 04:33:27;;;;;;;190.35;34.35;;;;;;;-4.96;100.00;101044.91;2064523;28;20113;-70
2022/12/13 04:34:32;;;;;;;120.18;32.88;;;;;;;-4.95;100.00;101044.06;2063710;28;36686;-70
2022/12/13 04:35:38;;;;;;;134.95;34.08;;;;;;;-4.95;100.00;101049.28;2063625;28;40933;-70
2022/12/13 04:36:42;;;;;;;213.95;31.98;;;;;;;-4.97;100.00;101040.50;2065878;28;38366;-72
2022/12/13 04:37:43;;;;;;;230.25;36.08;;;;;;;-4.95;100.00;101049.28;2046921;28;41122;-72
2022/12/13 04:38:46;;;;;;;246.60;37.35;;;;;;;-4.93;100.00;101042.44;2047678;28;24800;-72
2022/12/13 04:39:48;;;;;;;316.42;37.67;;;;;;;-4.97;100.00;101035.28;2063470;28;38265;-71
2022/12/13 04:40:49;;;;;;;293.70;35.47;;;;;;;-4.98;100.00;101034.41;2064251;28;20051;-71
2022/12/13 04:41:52;;;;;;;271.35;37.03;;;;;;;-4.99;100.00;101033.53;2054598;28;42395;-71
2022/12/13 04:42:54;;;;;;;226.85;32.67;;;;;;;-4.99;100.00;101028.31;2055428;28;40807;-71
2022/12/13 04:43:55;;;;;;;167.15;33.80;;;;;;;-4.99;100.00;101037.84;2062802;28;36200;-72
2022/12/13 04:44:59;;;;;;;158.43;32.65;;;;;;;-4.97;100.00;101035.28;2062961;28;41906;-72
2022/12/13 04:46:03;;;;;;;125.78;35.25;;;;;;;-4.99;100.00;101032.59;2064137;28;20896;-72
2022/12/13 04:47:05;;;;;;;120.97;35.08;;;;;;;-4.98;100.00;101037.03;2054268;28;38657;-71
2022/12/13 04:48:07;;;;;;;124.45;34.60;;;;;;;-4.99;100.00;101032.59;2055416;28;38516;-71
2022/12/13 04:49:11;;;;;;;158.63;34.55;;;;;;;-4.99;100.00;101038.75;2064174;28;20077;-71
2022/12/13 04:50:13;;;;;;;243.18;37.03;;;;;;;-5.00;100.00;101039.56;2063622;28;35838;-71
2022/12/13 04:51:15;;;;;;;331.27;35.65;;;;;;;-5.03;100.00;101034.19;2063642;28;36686;-71
2022/12/13 04:52:17;;;;;;;309.63;37.42;;;;;;;-5.04;100.00;101035.06;2054697;28;35780;-71
2022/12/13 04:53:22;;;;;;;153.70;33.13;;;;;;;-5.05;100.00;101028.03;2055512;28;39471;-72
2022/12/13 04:54:24;;;;;;;166.40;33.60;;;;;;;-5.03;100.00;101035.94;2063489;28;36858;-68
2022/12/13 04:55:26;;;;;;;136.70;35.10;;;;;;;-5.05;100.00;101033.25;2063370;28;36246;-71
2022/12/13 04:56:27;;;;;;;97.90;34.03;;;;;;;-5.03;100.00;101034.19;2063419;28;40640;-70
2022/12/13 04:57:29;;;;;;;161.05;36.80;;;;;;;-5.02;100.00;101037.72;2063462;28;40586;-70
2022/12/13 04:58:31;;;;;;;118.75;37.30;;;;;;;-5.02;100.00;101041.22;2063296;28;41313;-70
2022/12/13 04:59:33;;;;;;;151.48;36.50;;;;;;;-5.02;100.00;101033.38;2063077;28;40071;-70
2022/12/13 05:00:35;;;;;;;159.05;36.50;;;;;;;-5.00;100.00;101026.50;2054886;28;41515;-72
2022/12/13 05:02:02;;;;;;;196.68;36.47;;;;;;;-5.01;100.00;101036.88;2054791;28;39690;-68
2022/12/13 05:03:18;;;;;;;295.77;33.85;;;;;;;-5.07;100.00;101040.13;2064099;28;20050;-70
2022/12/13 05:04:19;;;;;;;146.48;35.65;;;;;;;-5.06;100.00;101031.50;2062758;28;42356;-71